createdAt,value
2023-02-28T00:01:32.930Z,101015.34
2023-02-28T00:04:01.746Z,101021.34
2023-02-28T00:06:30.312Z,101017.13
2023-02-28T00:08:58.779Z,101024.00
2023-02-28T00:11:27.558Z,101025.06
2023-02-28T00:13:57.682Z,101028.56
2023-02-28T00:16:26.284Z,101024.00
2023-02-28T00:18:54.798Z,101026.66
2023-02-28T00:21:23.344Z,101019.44
2023-02-28T00:23:51.799Z,101030.03
2023-02-28T00:26:21.941Z,101020.31
2023-02-28T00:28:51.350Z,101027.28
2023-02-28T00:31:21.202Z,101022.00
2023-02-28T00:33:50.272Z,101006.84
2023-02-28T00:36:18.660Z,101016.91
2023-02-28T00:38:47.236Z,101023.91
2023-02-28T00:41:15.590Z,101012.03
2023-02-28T00:43:44.160Z,101017.56
2023-02-28T00:46:13.348Z,101019.91
2023-02-28T00:48:43.191Z,101027.66
2023-02-28T00:51:11.677Z,101020.66
2023-02-28T00:53:40.098Z,101036.44
2023-02-28T00:56:09.051Z,101026.63
2023-02-28T00:58:37.443Z,101030.19
2023-02-28T01:01:06.263Z,101033.72
2023-02-28T01:03:35.101Z,101004.41
2023-02-28T01:06:04.977Z,101008.84
2023-02-28T01:08:33.658Z,101032.00
2023-02-28T01:11:11.038Z,101029.94
2023-02-28T01:13:42.340Z,101033.53
2023-02-28T01:16:11.019Z,101025.56
2023-02-28T01:18:40.086Z,101036.19
2023-02-28T01:21:11.688Z,101034.28
2023-02-28T01:23:40.534Z,101037.97
2023-02-28T01:26:10.283Z,101026.34
2023-02-28T01:28:41.654Z,101047.63
2023-02-28T01:31:10.997Z,101055.28
2023-02-28T01:33:40.583Z,101047.13
2023-02-28T01:36:14.169Z,101051.56
2023-02-28T01:38:42.716Z,101010.34
2023-02-28T01:41:17.409Z,101022.94
2023-02-28T01:44:06.556Z,101040.75
2023-02-28T01:46:36.443Z,101043.38
2023-02-28T01:49:11.237Z,101040.44
2023-02-28T01:51:46.757Z,101043.84
2023-02-28T01:54:19.266Z,101039.47
2023-02-28T01:56:53.335Z,101032.47
2023-02-28T01:59:27.041Z,101037.78
2023-02-28T02:01:56.454Z,101044.97
2023-02-28T02:04:29.322Z,101035.22
2023-02-28T02:07:00.811Z,101039.78
2023-02-28T02:09:29.217Z,101036.53
2023-02-28T02:11:58.821Z,101028.47
2023-02-28T02:14:53.534Z,101033.53
2023-02-28T02:17:34.578Z,101005.25
2023-02-28T02:20:35.964Z,101036.81
2023-02-28T02:23:29.969Z,101033.63
2023-02-28T02:26:02.740Z,100899.69
2023-02-28T02:29:14.060Z,101038.06
2023-02-28T02:32:17.761Z,101050.84
2023-02-28T02:34:58.683Z,101048.84
2023-02-28T02:37:38.383Z,101053.88
2023-02-28T02:40:16.080Z,101031.44
2023-02-28T02:42:51.841Z,101049.78
2023-02-28T02:45:25.088Z,101051.13
2023-02-28T02:47:57.956Z,101049.22
2023-02-28T02:50:32.946Z,101047.34
2023-02-28T02:53:05.275Z,101010.91
2023-02-28T02:55:39.454Z,101043.84
2023-02-28T02:58:12.678Z,101010.81
2023-02-28T03:00:47.807Z,101039.47
2023-02-28T03:03:18.989Z,101045.72
2023-02-28T03:05:51.235Z,101036.94
2023-02-28T03:08:20.914Z,101046.28
2023-02-28T03:10:52.804Z,101001.00
2023-02-28T03:13:41.835Z,101043.53
2023-02-28T03:16:33.135Z,101035.66
2023-02-28T03:19:13.077Z,101040.13
2023-02-28T03:21:52.317Z,101033.13
2023-02-28T03:24:27.311Z,101041.91
2023-02-28T03:27:01.682Z,101020.75
2023-02-28T03:29:35.869Z,101043.81
2023-02-28T03:32:15.734Z,101014.25
2023-02-28T03:34:49.808Z,101054.72
2023-02-28T03:37:24.541Z,101056.22
2023-02-28T03:39:57.997Z,101059.72
2023-02-28T03:42:30.204Z,101058.41
2023-02-28T03:45:02.412Z,101056.63
2023-02-28T03:47:38.065Z,101050.53
2023-02-28T03:50:12.136Z,101054.53
2023-02-28T03:52:47.447Z,101065.13
2023-02-28T03:55:18.055Z,101068.72
2023-02-28T03:57:57.805Z,101071.16
2023-02-28T04:00:33.964Z,101092.25
2023-02-28T04:03:02.492Z,101079.97
2023-02-28T04:05:31.807Z,101078.16
2023-02-28T04:08:08.880Z,101087.91
2023-02-28T04:10:37.350Z,101085.16
2023-02-28T04:13:05.651Z,101083.97
2023-02-28T04:15:34.297Z,101089.28
2023-02-28T04:18:02.586Z,101095.44
2023-02-28T04:20:31.005Z,101094.38
2023-02-28T04:22:59.424Z,101097.22
2023-02-28T04:25:29.367Z,101088.31
2023-02-28T04:27:57.714Z,101106.84
2023-02-28T04:30:26.114Z,101113.28
2023-02-28T04:32:54.518Z,101118.75
2023-02-28T04:35:22.913Z,101119.06
2023-02-28T04:37:51.311Z,101119.34
2023-02-28T04:40:20.060Z,101120.34
2023-02-28T04:42:49.801Z,101128.38
2023-02-28T04:45:18.463Z,101128.38
2023-02-28T04:47:46.841Z,101130.28
2023-02-28T04:50:15.254Z,101134.19
2023-02-28T04:52:43.614Z,101136.66
2023-02-28T04:55:12.613Z,101131.16
2023-02-28T04:57:40.926Z,101140.06
2023-02-28T05:00:13.985Z,101134.47
2023-02-28T05:02:42.408Z,101143.25
2023-02-28T05:05:11.140Z,101138.91
2023-02-28T05:07:39.656Z,101133.06
2023-02-28T05:10:08.664Z,101141.94
2023-02-28T05:12:37.072Z,101144.59
2023-02-28T05:15:06.147Z,101133.00
2023-02-28T05:17:35.877Z,101140.66
2023-02-28T05:20:14.993Z,101143.50
2023-02-28T05:22:44.651Z,101141.91
2023-02-28T05:25:16.134Z,101153.34
2023-02-28T05:27:45.372Z,101147.09
2023-02-28T05:30:14.257Z,101146.16
2023-02-28T05:32:45.037Z,101153.34
2023-02-28T05:35:13.975Z,101158.09
2023-02-28T05:37:42.607Z,101156.38
2023-02-28T05:40:12.489Z,101148.53
2023-02-28T05:42:40.992Z,101112.84
2023-02-28T05:45:11.227Z,101146.06
2023-02-28T05:47:39.541Z,101161.31
2023-02-28T05:50:11.735Z,101156.00
2023-02-28T05:52:40.159Z,101170.19
2023-02-28T05:55:09.343Z,101177.28
2023-02-28T05:57:37.792Z,101172.94
2023-02-28T06:00:07.187Z,101164.25
2023-02-28T06:02:41.548Z,101153.09
2023-02-28T06:05:16.297Z,101157.75
2023-02-28T06:07:45.082Z,101163.22
2023-02-28T06:10:13.953Z,101170.31
2023-02-28T06:12:43.829Z,101165.88
2023-02-28T06:15:15.451Z,101146.38
2023-02-28T06:17:44.014Z,101168.22
2023-02-28T06:20:15.056Z,101172.75
2023-02-28T06:22:43.958Z,101174.13
2023-02-28T06:25:13.046Z,101179.28
2023-02-28T06:27:41.548Z,101187.22
2023-02-28T06:30:11.034Z,101187.34
2023-02-28T06:32:40.333Z,101182.31
2023-02-28T06:35:09.428Z,101190.25
2023-02-28T06:37:41.634Z,101189.41
2023-02-28T06:40:14.080Z,101187.72
2023-02-28T06:42:42.803Z,101191.97
2023-02-28T06:45:12.060Z,101191.88
2023-02-28T06:47:42.461Z,101202.75
2023-02-28T06:50:12.843Z,101197.06
2023-02-28T06:52:42.583Z,101214.72
2023-02-28T06:55:11.868Z,101205.16
2023-02-28T06:57:40.347Z,101224.44
2023-02-28T07:00:11.197Z,101216.25
2023-02-28T07:02:39.848Z,101226.47
2023-02-28T07:05:08.953Z,101218.63
2023-02-28T07:07:39.683Z,101246.69
2023-02-28T07:10:11.949Z,101246.41
2023-02-28T07:12:40.430Z,101240.19
2023-02-28T07:15:09.910Z,101233.84
2023-02-28T07:17:39.333Z,101234.44
2023-02-28T07:20:08.788Z,101249.63
2023-02-28T07:22:38.368Z,101244.25
2023-02-28T07:25:07.577Z,101248.88
2023-02-28T07:27:37.433Z,101254.94
2023-02-28T07:30:06.754Z,101254.19
2023-02-28T07:32:39.016Z,101257.75
2023-02-28T07:35:08.181Z,101260.69
2023-02-28T07:37:37.633Z,101265.31
2023-02-28T07:40:09.511Z,101272.31
2023-02-28T07:42:39.697Z,101282.72
2023-02-28T07:45:09.638Z,101267.78
2023-02-28T07:47:38.021Z,101280.94
2023-02-28T07:50:07.275Z,101286.59
2023-02-28T07:52:35.671Z,101282.75
2023-02-28T07:55:04.201Z,101280.38
2023-02-28T07:57:35.792Z,101280.75
2023-02-28T08:00:06.389Z,101283.97
2023-02-28T08:02:39.741Z,101294.88
2023-02-28T08:05:09.595Z,101294.50
2023-02-28T08:07:38.111Z,101303.94
2023-02-28T08:10:08.114Z,101313.41
2023-02-28T08:12:36.540Z,101309.13
2023-02-28T08:15:07.281Z,101304.78
2023-02-28T08:17:35.716Z,101316.47
2023-02-28T08:20:05.110Z,101289.06
2023-02-28T08:22:33.514Z,101317.75
2023-02-28T08:25:01.827Z,101310.75
2023-02-28T08:27:30.197Z,101324.94
2023-02-28T08:29:58.676Z,101326.47
2023-02-28T08:32:30.047Z,101322.66
2023-02-28T08:34:59.226Z,101275.94
2023-02-28T08:37:27.871Z,101331.56
2023-02-28T08:39:56.685Z,101323.72
2023-02-28T08:42:25.393Z,101324.34
2023-02-28T08:44:53.813Z,101323.53
2023-02-28T08:47:22.217Z,101326.59
2023-02-28T08:49:52.332Z,101319.31
2023-02-28T08:52:20.747Z,101324.88
2023-02-28T08:54:49.175Z,101330.75
2023-02-28T08:57:17.511Z,101325.97
2023-02-28T08:59:45.935Z,101321.22
2023-02-28T09:02:15.509Z,101323.69
2023-02-28T09:04:47.195Z,101323.28
2023-02-28T09:07:17.069Z,101291.28
2023-02-28T09:09:55.811Z,101327.81
2023-02-28T09:12:24.549Z,101335.09
2023-02-28T09:14:53.290Z,101324.78
2023-02-28T09:17:22.507Z,101332.75
2023-02-28T09:19:51.534Z,101321.38
2023-02-28T09:22:21.468Z,101324.56
2023-02-28T09:24:49.783Z,101325.53
2023-02-28T09:27:18.335Z,101336.78
2023-02-28T09:29:46.680Z,101324.88
2023-02-28T09:32:15.427Z,101328.63
2023-02-28T09:34:44.256Z,101331.72
2023-02-28T09:37:12.678Z,101329.47
2023-02-28T09:39:42.516Z,101334.38
2023-02-28T09:42:23.202Z,101330.47
2023-02-28T09:44:53.501Z,101340.84
2023-02-28T09:47:34.364Z,101333.13
2023-02-28T09:50:24.957Z,101330.91
2023-02-28T09:52:53.423Z,101325.28
2023-02-28T09:55:35.244Z,101329.09
2023-02-28T09:58:08.135Z,101330.56
2023-02-28T10:00:42.399Z,101329.53
2023-02-28T10:03:32.713Z,101337.19
2023-02-28T10:06:07.284Z,101335.91
2023-02-28T10:08:46.300Z,101326.75
2023-02-28T10:11:19.302Z,101320.16
2023-02-28T10:13:56.976Z,101331.84
2023-02-28T10:16:31.156Z,101328.69
2023-02-28T10:19:06.663Z,101323.00
2023-02-28T10:21:39.052Z,101320.25
2023-02-28T10:24:19.470Z,101317.91
2023-02-28T10:26:50.823Z,101322.25
2023-02-28T10:29:19.217Z,101322.16
2023-02-28T10:31:47.581Z,101318.44
2023-02-28T10:34:16.148Z,101324.69
2023-02-28T10:36:45.953Z,101321.09
2023-02-28T10:39:36.775Z,101325.34
2023-02-28T10:42:07.766Z,101327.25
2023-02-28T10:44:36.246Z,101323.22
2023-02-28T10:47:04.953Z,101330.03
2023-02-28T10:49:33.449Z,101326.19
2023-02-28T10:52:03.040Z,101297.59
2023-02-28T10:54:35.060Z,101320.44
2023-02-28T10:57:19.989Z,101324.91
2023-02-28T10:59:52.641Z,101328.84
2023-02-28T11:02:38.508Z,101322.38
2023-02-28T11:05:26.080Z,101316.47
2023-02-28T11:07:55.746Z,101316.88
2023-02-28T11:10:28.945Z,101320.84
2023-02-28T11:13:01.217Z,101311.47
2023-02-28T11:15:32.073Z,101312.34
2023-02-28T11:18:02.659Z,101224.59
2023-02-28T11:20:34.632Z,101304.69
2023-02-28T11:23:06.563Z,101306.94
2023-02-28T11:25:37.554Z,101259.03
2023-02-28T11:28:08.858Z,101294.09
2023-02-28T11:30:39.950Z,101272.31
2023-02-28T11:33:24.809Z,101293.34
2023-02-28T11:35:54.486Z,101284.84
2023-02-28T11:38:22.874Z,101289.31
2023-02-28T11:41:07.508Z,101267.00
2023-02-28T11:43:53.782Z,101288.59
2023-02-28T11:46:30.432Z,101294.53
2023-02-28T11:49:09.066Z,101289.97
2023-02-28T11:51:48.499Z,101290.09
2023-02-28T11:54:30.215Z,101286.34
2023-02-28T11:57:02.546Z,101272.13
2023-02-28T11:59:47.663Z,101282.84
2023-02-28T12:02:29.086Z,101274.88
2023-02-28T12:05:15.645Z,101281.03
2023-02-28T12:07:52.306Z,101252.34
2023-02-28T12:10:25.154Z,101267.53
2023-02-28T12:13:10.985Z,101271.91
2023-02-28T12:16:13.361Z,101275.16
2023-02-28T12:19:06.670Z,101280.38
2023-02-28T12:21:51.005Z,101266.47
2023-02-28T12:24:39.630Z,101273.06
2023-02-28T12:27:13.896Z,101274.56
2023-02-28T12:29:50.189Z,101266.59
2023-02-28T12:32:23.894Z,101261.47
2023-02-28T12:34:59.868Z,101265.72
2023-02-28T12:37:34.072Z,101265.00
2023-02-28T12:40:07.822Z,101260.53
2023-02-28T12:42:43.140Z,101253.72
2023-02-28T12:45:19.757Z,101250.09
2023-02-28T12:47:53.035Z,101245.63
2023-02-28T12:50:25.583Z,101247.13
2023-02-28T12:52:58.546Z,101230.13
2023-02-28T12:55:35.932Z,101234.84
2023-02-28T12:58:14.616Z,101233.47
2023-02-28T13:01:07.033Z,101232.59
2023-02-28T13:04:25.523Z,101233.25
2023-02-28T13:07:10.603Z,101233.97
2023-02-28T13:09:40.762Z,101231.09
2023-02-28T13:12:16.548Z,101227.00
2023-02-28T13:14:45.460Z,101228.72
2023-02-28T13:17:20.470Z,101232.97
2023-02-28T13:19:59.966Z,101223.50
2023-02-28T13:22:49.254Z,101232.91
2023-02-28T13:25:54.968Z,101221.44
2023-02-28T13:28:56.981Z,101216.63
2023-02-28T13:31:25.580Z,101207.31
2023-02-28T13:34:21.142Z,101221.03
2023-02-28T13:36:49.563Z,101217.31
2023-02-28T13:39:50.717Z,101216.16
2023-02-28T13:42:35.434Z,101212.06
2023-02-28T13:45:24.104Z,101224.00
2023-02-28T13:48:01.961Z,101219.09
2023-02-28T13:50:34.037Z,101222.22
2023-02-28T13:53:40.885Z,101217.44
2023-02-28T13:56:30.502Z,101212.06
2023-02-28T13:59:08.548Z,101207.66
2023-02-28T14:01:54.386Z,101202.34
2023-02-28T14:05:03.989Z,101192.44
2023-02-28T14:07:36.567Z,101197.81
2023-02-28T14:10:09.647Z,101193.25
2023-02-28T14:13:00.908Z,101191.31
2023-02-28T14:15:38.777Z,101145.41
2023-02-28T14:18:18.505Z,101183.84
2023-02-28T14:20:49.747Z,101190.28
2023-02-28T14:23:33.625Z,101189.81
2023-02-28T14:26:12.820Z,101157.47
2023-02-28T14:28:59.045Z,101192.81
2023-02-28T14:31:34.932Z,101189.47
2023-02-28T14:34:32.112Z,101199.88
2023-02-28T14:37:04.598Z,101189.22
2023-02-28T14:39:34.569Z,101193.97
2023-02-28T14:42:06.001Z,101181.88
2023-02-28T14:44:38.885Z,101145.63
2023-02-28T14:47:16.960Z,101185.75
2023-02-28T14:49:48.091Z,101189.50
2023-02-28T14:52:21.509Z,101188.41
2023-02-28T14:54:55.702Z,101194.81
2023-02-28T14:57:26.502Z,101197.25
2023-02-28T15:00:11.735Z,101187.34
2023-02-28T15:02:41.514Z,101185.53
2023-02-28T15:05:26.523Z,101187.81
2023-02-28T15:08:05.409Z,101182.97
2023-02-28T15:10:34.512Z,101181.63
2023-02-28T15:13:06.769Z,101136.69
2023-02-28T15:16:05.238Z,101176.69
2023-02-28T15:18:44.928Z,101183.44
2023-02-28T15:21:17.227Z,101136.78
2023-02-28T15:23:50.591Z,101161.50
2023-02-28T15:26:22.754Z,101144.31
2023-02-28T15:28:54.796Z,101181.75
2023-02-28T15:31:34.022Z,101180.50
2023-02-28T15:34:07.890Z,101180.13
2023-02-28T15:36:38.312Z,101186.28
2023-02-28T15:39:21.336Z,101169.47
2023-02-28T15:41:50.098Z,101170.03
2023-02-28T15:44:28.075Z,101179.72
2023-02-28T15:47:03.619Z,101181.38
2023-02-28T15:49:44.985Z,101188.59
2023-02-28T15:52:18.901Z,101188.72
2023-02-28T15:54:48.809Z,101191.75
2023-02-28T15:57:21.709Z,101195.50
2023-02-28T15:59:55.096Z,101193.56
2023-02-28T16:02:33.880Z,101192.31
2023-02-28T16:05:21.755Z,101200.25
2023-02-28T16:07:50.438Z,101196.56
2023-02-28T16:10:18.869Z,101197.00
2023-02-28T16:12:47.420Z,101198.53
2023-02-28T16:15:23.033Z,101200.78
2023-02-28T16:17:53.060Z,101198.44
2023-02-28T16:20:23.981Z,101210.03
2023-02-28T16:22:52.725Z,101203.13
2023-02-28T16:25:25.430Z,101194.41
2023-02-28T16:27:56.195Z,101193.34
2023-02-28T16:30:26.962Z,101202.91
2023-02-28T16:32:57.848Z,101199.19
2023-02-28T16:35:26.848Z,101197.91
2023-02-28T16:37:55.933Z,101196.09
2023-02-28T16:40:29.665Z,101194.94
2023-02-28T16:43:02.116Z,101207.25
2023-02-28T16:45:31.283Z,101198.44
2023-02-28T16:48:01.108Z,101201.19
2023-02-28T16:50:31.121Z,101198.13
2023-02-28T16:52:59.618Z,101209.81
2023-02-28T16:55:29.151Z,101207.28
2023-02-28T16:57:59.376Z,101179.59
2023-02-28T17:00:29.768Z,101215.13
2023-02-28T17:02:58.432Z,101218.75
2023-02-28T17:05:35.481Z,101215.88
2023-02-28T17:08:03.841Z,101216.72
2023-02-28T17:10:32.368Z,101220.97
2023-02-28T17:13:14.166Z,101215.34
2023-02-28T17:15:43.966Z,101227.66
2023-02-28T17:18:17.112Z,101184.97
2023-02-28T17:20:47.274Z,101220.75
2023-02-28T17:23:16.154Z,101224.38
2023-02-28T17:25:55.715Z,101235.00
2023-02-28T17:28:26.499Z,101230.03
2023-02-28T17:30:55.000Z,101231.81
2023-02-28T17:33:23.431Z,101230.22
2023-02-28T17:35:53.204Z,101239.91
2023-02-28T17:38:24.075Z,101238.41
2023-02-28T17:40:58.126Z,101243.41
2023-02-28T17:43:26.957Z,101244.19
2023-02-28T17:45:57.445Z,101248.22
2023-02-28T17:48:26.102Z,101263.13
2023-02-28T17:50:56.649Z,101268.00
2023-02-28T17:53:25.264Z,101272.88
2023-02-28T17:55:53.699Z,101269.69
2023-02-28T17:58:22.161Z,101279.66
2023-02-28T18:00:54.994Z,101281.16
2023-02-28T18:03:24.879Z,101290.25
2023-02-28T18:05:53.318Z,101288.31
2023-02-28T18:08:23.262Z,101290.44
2023-02-28T18:10:51.721Z,101290.84
2023-02-28T18:13:20.387Z,101298.47
2023-02-28T18:15:49.230Z,101298.56
2023-02-28T18:18:17.833Z,101296.41
2023-02-28T18:20:47.450Z,101298.41
2023-02-28T18:23:18.284Z,101301.91
2023-02-28T18:25:48.422Z,101302.84
2023-02-28T18:28:16.935Z,101301.34
2023-02-28T18:30:45.276Z,101293.25
2023-02-28T18:33:13.626Z,101304.97
2023-02-28T18:35:42.126Z,101305.19
2023-02-28T18:38:15.053Z,101310.69
2023-02-28T18:40:44.298Z,101304.53
2023-02-28T18:43:14.793Z,101307.63
2023-02-28T18:45:43.435Z,101309.00
2023-02-28T18:48:11.791Z,101310.06
2023-02-28T18:50:41.424Z,101305.84
2023-02-28T18:53:09.847Z,101295.41
2023-02-28T18:55:38.984Z,101304.97
2023-02-28T18:58:08.893Z,101302.53
2023-02-28T19:00:39.070Z,101289.00
2023-02-28T19:03:07.745Z,101312.38
2023-02-28T19:05:38.248Z,101297.50
2023-02-28T19:08:06.957Z,101309.81
2023-02-28T19:10:35.577Z,101304.63
2023-02-28T19:13:04.863Z,101315.88
2023-02-28T19:15:33.276Z,101314.09
2023-02-28T19:18:03.430Z,101313.66
2023-02-28T19:20:32.131Z,101312.94
2023-02-28T19:23:01.513Z,101314.09
2023-02-28T19:25:31.027Z,101308.78
2023-02-28T19:27:59.454Z,101311.34
2023-02-28T19:30:28.068Z,101305.94
2023-02-28T19:32:58.314Z,101304.53
2023-02-28T19:35:28.429Z,101312.22
2023-02-28T19:37:58.881Z,101309.09
2023-02-28T19:40:27.795Z,101310.34
2023-02-28T19:42:56.158Z,101309.69
2023-02-28T19:45:26.585Z,101314.16
2023-02-28T19:47:55.951Z,101309.69
2023-02-28T19:50:25.302Z,101306.84
2023-02-28T19:52:57.074Z,101318.84
2023-02-28T19:55:26.383Z,101310.88
2023-02-28T19:57:54.817Z,101307.47
2023-02-28T20:00:23.671Z,101310.75
2023-02-28T20:02:52.451Z,101311.03
2023-02-28T20:05:20.804Z,101306.88
2023-02-28T20:07:49.208Z,101305.44
2023-02-28T20:10:20.263Z,101304.88
2023-02-28T20:12:49.059Z,101303.78
2023-02-28T20:15:17.689Z,101299.50
2023-02-28T20:17:46.888Z,101291.81
2023-02-28T20:20:15.422Z,101298.47
2023-02-28T20:22:44.594Z,101298.09
2023-02-28T20:25:13.211Z,101300.44
2023-02-28T20:27:43.854Z,101284.75
2023-02-28T20:30:13.668Z,101294.09
2023-02-28T20:32:42.374Z,101295.78
2023-02-28T20:35:12.447Z,101291.44
2023-02-28T20:37:41.373Z,101268.56
2023-02-28T20:40:11.342Z,101295.03
2023-02-28T20:42:39.823Z,101293.75
2023-02-28T20:45:11.263Z,101290.78
2023-02-28T20:47:39.704Z,101293.72
2023-02-28T20:50:09.895Z,101287.56
2023-02-28T20:52:38.327Z,101295.59
2023-02-28T20:55:08.209Z,101287.84
2023-02-28T20:57:36.680Z,101291.75
2023-02-28T21:00:07.997Z,101304.22
2023-02-28T21:02:37.978Z,101308.00
2023-02-28T21:05:07.388Z,101305.34
2023-02-28T21:07:35.900Z,101287.56
2023-02-28T21:10:04.321Z,101305.63
2023-02-28T21:12:32.754Z,101293.50
2023-02-28T21:15:01.323Z,101293.88
2023-02-28T21:17:30.378Z,101267.59
2023-02-28T21:20:00.291Z,101292.38
2023-02-28T21:22:28.694Z,101287.19
2023-02-28T21:24:57.144Z,101287.06
2023-02-28T21:27:25.569Z,101285.28
2023-02-28T21:29:54.077Z,101290.38
2023-02-28T21:32:22.439Z,101291.16
2023-02-28T21:34:50.866Z,101288.88
2023-02-28T21:37:20.647Z,101290.22
2023-02-28T21:39:48.991Z,101298.84
2023-02-28T21:42:17.518Z,101286.22
2023-02-28T21:44:46.440Z,101290.38
2023-02-28T21:47:14.834Z,101288.41
2023-02-28T21:49:43.270Z,101295.22
2023-02-28T21:52:11.755Z,101289.75
2023-02-28T21:54:41.606Z,101272.41
2023-02-28T21:57:11.439Z,101295.81
2023-02-28T21:59:41.279Z,101300.84
2023-02-28T22:02:10.873Z,101300.66
2023-02-28T22:04:40.748Z,101276.97
2023-02-28T22:07:09.145Z,101311.03
2023-02-28T22:09:37.792Z,101301.88
2023-02-28T22:12:08.637Z,101298.47
2023-02-28T22:14:39.912Z,101306.41
2023-02-28T22:17:08.419Z,101303.78
2023-02-28T22:19:36.857Z,101300.19
2023-02-28T22:22:05.289Z,101296.59
2023-02-28T22:24:33.804Z,101278.47
2023-02-28T22:27:02.381Z,101283.44
2023-02-28T22:29:32.122Z,101281.63
2023-02-28T22:32:00.614Z,101269.31
2023-02-28T22:34:29.020Z,101276.25
2023-02-28T22:36:58.111Z,101270.09
2023-02-28T22:39:26.563Z,101275.19
2023-02-28T22:41:56.891Z,101273.59
2023-02-28T22:44:25.245Z,101275.06
2023-02-28T22:46:56.174Z,101280.56
2023-02-28T22:49:25.209Z,101279.50
2023-02-28T22:51:53.619Z,101283.19
2023-02-28T22:54:21.977Z,101279.59
2023-02-28T22:56:50.276Z,101286.59
2023-02-28T22:59:18.711Z,101282.34
2023-02-28T23:01:47.098Z,101293.88
2023-02-28T23:04:17.105Z,101287.19
2023-02-28T23:06:46.292Z,101289.00
2023-02-28T23:09:18.320Z,101287.84
2023-02-28T23:11:48.922Z,101285.38
2023-02-28T23:14:18.775Z,101278.19
2023-02-28T23:16:48.666Z,101278.84
2023-02-28T23:19:20.965Z,101271.00
2023-02-28T23:21:49.636Z,101270.06
2023-02-28T23:24:20.311Z,101269.38
2023-02-28T23:26:51.333Z,101278.66
2023-02-28T23:29:21.168Z,101279.41
2023-02-28T23:31:50.328Z,101273.66
2023-02-28T23:34:26.486Z,101278.94
2023-02-28T23:36:56.728Z,101279.44
2023-02-28T23:39:26.105Z,101281.78
2023-02-28T23:41:54.520Z,101270.44
2023-02-28T23:44:23.093Z,101269.78
2023-02-28T23:46:54.301Z,101267.97
2023-02-28T23:49:24.506Z,101268.25
2023-02-28T23:51:54.585Z,101270.25
2023-02-28T23:54:23.369Z,101263.25
2023-02-28T23:56:52.008Z,101240.63
2023-02-28T23:59:21.273Z,101271.84
